createdAt,value
2022-11-19T00:00:13.246Z,-0.60
2022-11-19T00:03:16.131Z,-0.51
2022-11-19T00:06:20.177Z,-0.47
2022-11-19T00:09:36.495Z,-0.49
2022-11-19T00:12:56.584Z,-0.53
2022-11-19T00:16:07.549Z,-0.45
2022-11-19T00:19:12.900Z,-0.59
2022-11-19T00:22:29.770Z,-0.58
2022-11-19T00:25:31.547Z,-0.63
2022-11-19T00:28:34.055Z,-0.71
2022-11-19T00:31:35.750Z,-0.69
2022-11-19T00:34:37.620Z,-0.73
2022-11-19T00:37:39.897Z,-0.75
2022-11-19T00:40:42.427Z,-0.78
2022-11-19T00:43:47.164Z,-0.73
2022-11-19T00:46:49.095Z,-0.71
2022-11-19T00:49:50.864Z,-0.66
2022-11-19T00:52:52.615Z,-0.68
2022-11-19T00:55:54.827Z,-0.62
2022-11-19T00:58:56.779Z,-0.51
2022-11-19T01:01:58.569Z,-0.52
2022-11-19T01:05:00.325Z,-0.51
2022-11-19T01:08:02.080Z,-0.54
2022-11-19T01:11:12.394Z,-0.63
2022-11-19T01:14:14.287Z,-0.56
2022-11-19T01:17:16.023Z,-0.51
2022-11-19T01:20:17.825Z,-0.20
2022-11-19T01:23:19.945Z,-0.14
2022-11-19T01:26:22.002Z,-0.39
2022-11-19T01:29:23.826Z,-0.33
2022-11-19T01:32:25.690Z,-0.38
2022-11-19T01:35:27.420Z,-0.41
2022-11-19T01:38:29.761Z,-0.60
2022-11-19T01:41:32.504Z,-0.71
2022-11-19T01:45:03.490Z,-0.71
2022-11-19T01:48:14.580Z,-0.69
2022-11-19T01:51:20.264Z,-0.69
2022-11-19T01:54:26.643Z,-0.59
2022-11-19T01:57:28.467Z,-0.62
2022-11-19T02:00:30.331Z,-0.56
2022-11-19T02:03:34.349Z,-0.48
2022-11-19T02:06:36.137Z,-0.67
2022-11-19T02:09:38.317Z,-0.64
2022-11-19T02:13:08.751Z,-0.57
2022-11-19T02:16:32.029Z,-0.72
2022-11-19T02:20:07.881Z,-0.77
2022-11-19T02:23:44.832Z,-0.78
2022-11-19T02:26:59.880Z,-0.85
2022-11-19T02:30:22.946Z,-0.85
2022-11-19T02:33:52.481Z,-0.86
2022-11-19T02:37:14.250Z,-0.82
2022-11-19T02:40:29.470Z,-0.85
2022-11-19T02:43:36.410Z,-0.90
2022-11-19T02:46:38.506Z,-0.85
2022-11-19T02:49:44.140Z,-0.86
2022-11-19T02:52:46.580Z,-0.95
2022-11-19T02:56:08.286Z,-1.04
2022-11-19T02:59:28.625Z,-1.15
2022-11-19T03:02:53.593Z,-1.15
2022-11-19T03:06:06.269Z,-1.11
2022-11-19T03:09:08.120Z,-1.09
2022-11-19T03:12:29.584Z,-1.03
2022-11-19T03:16:01.148Z,-1.19
2022-11-19T03:19:09.033Z,-1.25
2022-11-19T03:22:35.097Z,-1.39
2022-11-19T03:25:50.961Z,-1.36
2022-11-19T03:28:53.871Z,-1.37
2022-11-19T03:32:07.809Z,-1.29
2022-11-19T03:35:14.716Z,-1.24
2022-11-19T03:38:27.098Z,-1.21
2022-11-19T03:41:29.838Z,-1.22
2022-11-19T03:44:40.148Z,-1.21
2022-11-19T03:47:42.424Z,-1.25
2022-11-19T03:51:00.260Z,-1.22
2022-11-19T03:54:02.105Z,-1.14
2022-11-19T03:57:06.052Z,-1.07
2022-11-19T04:00:09.705Z,-1.08
2022-11-19T04:03:17.165Z,-1.29
2022-11-19T04:06:19.109Z,-1.23
2022-11-19T04:09:21.343Z,-1.14
2022-11-19T04:12:25.302Z,-1.14
2022-11-19T04:15:27.371Z,-1.27
2022-11-19T04:18:29.228Z,-1.15
2022-11-19T04:21:31.262Z,-1.09
2022-11-19T04:24:33.222Z,-1.09
2022-11-19T04:27:35.008Z,-1.00
2022-11-19T04:30:36.985Z,-1.15
2022-11-19T04:33:38.794Z,-1.12
2022-11-19T04:36:42.273Z,-1.05
2022-11-19T04:39:44.033Z,-1.08
2022-11-19T04:42:45.757Z,-1.18
2022-11-19T04:45:47.540Z,-1.16
2022-11-19T04:48:49.280Z,-1.12
2022-11-19T04:51:53.651Z,-1.14
2022-11-19T04:54:55.489Z,-1.07
2022-11-19T04:57:57.676Z,-1.21
2022-11-19T05:00:59.512Z,-1.16
2022-11-19T05:04:02.756Z,-1.19
2022-11-19T05:07:04.812Z,-1.21
2022-11-19T05:10:07.188Z,-1.27
2022-11-19T05:13:08.973Z,-1.31
2022-11-19T05:16:10.939Z,-1.38
2022-11-19T05:19:12.727Z,-1.40
2022-11-19T05:22:14.944Z,-1.42
2022-11-19T05:25:17.599Z,-1.55
2022-11-19T05:28:24.818Z,-1.44
2022-11-19T05:31:34.850Z,-1.47
2022-11-19T05:34:36.730Z,-1.53
2022-11-19T05:37:38.606Z,-1.44
2022-11-19T05:40:40.425Z,-1.44
2022-11-19T05:43:42.089Z,-1.39
2022-11-19T05:46:44.264Z,-1.40
2022-11-19T05:49:46.577Z,-1.41
2022-11-19T05:52:49.237Z,-1.45
2022-11-19T05:55:51.201Z,-1.39
2022-11-19T05:58:57.106Z,-1.57
2022-11-19T06:01:59.028Z,-1.45
2022-11-19T06:05:01.141Z,-1.48
2022-11-19T06:08:03.297Z,-1.51
2022-11-19T06:11:06.045Z,-1.48
2022-11-19T06:14:08.528Z,-1.47
2022-11-19T06:17:13.316Z,-1.60
2022-11-19T06:20:20.632Z,-1.58
2022-11-19T06:23:25.184Z,-1.57
2022-11-19T06:26:30.403Z,-1.66
2022-11-19T06:29:35.029Z,-1.75
2022-11-19T06:32:52.330Z,-1.73
2022-11-19T06:35:55.650Z,-1.71
2022-11-19T06:38:57.510Z,-1.60
2022-11-19T06:42:19.269Z,-1.52
2022-11-19T06:45:21.010Z,-1.52
2022-11-19T06:48:23.025Z,-1.46
2022-11-19T06:51:24.964Z,-1.65
2022-11-19T06:54:27.627Z,-1.80
2022-11-19T06:57:30.134Z,-1.83
2022-11-19T07:00:32.664Z,-1.70
2022-11-19T07:03:35.881Z,-1.54
2022-11-19T07:06:37.689Z,-1.50
2022-11-19T07:09:41.956Z,-1.46
2022-11-19T07:12:43.825Z,-1.52
2022-11-19T07:15:45.803Z,-1.25
2022-11-19T07:18:47.846Z,-1.28
2022-11-19T07:21:49.744Z,-1.14
2022-11-19T07:24:51.643Z,-1.22
2022-11-19T07:27:53.490Z,-1.15
2022-11-19T07:30:56.262Z,-1.25
2022-11-19T07:33:58.183Z,-1.11
2022-11-19T07:37:00.262Z,-0.91
2022-11-19T07:40:03.365Z,-1.01
2022-11-19T07:43:05.138Z,-1.20
2022-11-19T07:46:09.153Z,-1.07
2022-11-19T07:49:11.659Z,-0.85
2022-11-19T07:52:13.522Z,-0.87
2022-11-19T07:55:16.091Z,-0.71
2022-11-19T07:58:18.136Z,-0.67
2022-11-19T08:01:22.513Z,-0.60
2022-11-19T08:04:24.404Z,-0.61
2022-11-19T08:07:26.681Z,-0.71
2022-11-19T08:10:31.923Z,-0.69
2022-11-19T08:13:34.811Z,-0.86
2022-11-19T08:16:55.314Z,-0.57
2022-11-19T08:19:57.220Z,-0.51
2022-11-19T08:22:59.269Z,-0.45
2022-11-19T08:26:01.191Z,-0.42
2022-11-19T08:29:03.433Z,-0.38
2022-11-19T08:32:05.681Z,-0.18
2022-11-19T08:35:08.020Z,-0.21
2022-11-19T08:38:11.257Z,-0.35
2022-11-19T08:41:31.895Z,-0.42
2022-11-19T08:44:33.971Z,-0.41
2022-11-19T08:47:35.815Z,-0.75
2022-11-19T08:50:37.906Z,-0.62
2022-11-19T08:53:40.044Z,-0.45
2022-11-19T08:56:42.376Z,-0.77
2022-11-19T08:59:44.426Z,-0.59
2022-11-19T09:02:47.750Z,-0.62
2022-11-19T09:05:49.996Z,-0.63
2022-11-19T09:08:52.083Z,-0.65
2022-11-19T09:11:56.110Z,-0.32
2022-11-19T09:14:58.854Z,-0.36
2022-11-19T09:18:00.878Z,-0.21
2022-11-19T09:21:02.957Z,-0.06
2022-11-19T09:24:05.745Z,-0.05
2022-11-19T09:27:08.119Z,-0.24
2022-11-19T09:30:14.604Z,-0.31
2022-11-19T09:33:16.815Z,-0.18
2022-11-19T09:36:19.655Z,-0.27
2022-11-19T09:39:21.453Z,-0.13
2022-11-19T09:42:37.259Z,-0.17
2022-11-19T09:45:54.622Z,-0.28
2022-11-19T09:49:01.558Z,-0.19
2022-11-19T09:52:11.257Z,-0.30
2022-11-19T09:55:20.595Z,-0.33
2022-11-19T09:58:31.472Z,0.01
2022-11-19T10:01:34.452Z,0.10
2022-11-19T10:04:37.135Z,0.42
2022-11-19T10:08:02.067Z,0.27
2022-11-19T10:11:36.164Z,0.30
2022-11-19T10:15:03.770Z,0.20
2022-11-19T10:18:09.491Z,0.43
2022-11-19T10:21:33.092Z,0.12
2022-11-19T10:24:43.284Z,0.32
2022-11-19T10:27:55.200Z,0.61
2022-11-19T10:31:16.845Z,1.01
2022-11-19T10:34:23.893Z,1.40
2022-11-19T10:37:30.834Z,1.24
2022-11-19T10:40:42.876Z,1.08
2022-11-19T10:43:57.691Z,1.25
2022-11-19T10:47:00.793Z,1.07
2022-11-19T10:50:06.960Z,0.92
2022-11-19T10:53:36.954Z,1.11
2022-11-19T10:56:41.316Z,0.81
2022-11-19T10:59:44.110Z,0.85
2022-11-19T11:02:48.716Z,1.02
2022-11-19T11:06:03.515Z,0.78
2022-11-19T11:09:05.770Z,0.80
2022-11-19T11:12:30.507Z,0.90
2022-11-19T11:15:32.504Z,0.96
2022-11-19T11:18:35.951Z,0.88
2022-11-19T11:21:43.098Z,0.97
2022-11-19T11:24:45.019Z,0.94
2022-11-19T11:27:47.480Z,0.99
2022-11-19T11:31:20.157Z,1.01
2022-11-19T11:34:31.624Z,1.22
2022-11-19T11:37:33.871Z,1.06
2022-11-19T11:40:35.768Z,1.27
2022-11-19T11:43:40.568Z,1.55
2022-11-19T11:47:13.095Z,1.57
2022-11-19T11:50:18.261Z,1.58
2022-11-19T11:53:30.122Z,1.73
2022-11-19T11:56:32.285Z,1.71
2022-11-19T11:59:34.246Z,1.61
2022-11-19T12:02:38.094Z,1.12
2022-11-19T12:05:55.466Z,1.08
2022-11-19T12:09:06.276Z,1.11
2022-11-19T12:12:37.641Z,1.16
2022-11-19T12:15:48.775Z,1.22
2022-11-19T12:19:12.611Z,1.27
2022-11-19T12:22:23.674Z,1.52
2022-11-19T12:25:35.268Z,1.32
2022-11-19T12:28:52.002Z,1.20
2022-11-19T12:32:07.648Z,1.30
2022-11-19T12:35:34.505Z,1.44
2022-11-19T12:38:44.942Z,1.40
2022-11-19T12:42:21.789Z,1.42
2022-11-19T12:45:37.273Z,1.26
2022-11-19T12:49:11.519Z,1.46
2022-11-19T12:52:32.306Z,1.25
2022-11-19T12:55:46.308Z,1.34
2022-11-19T12:58:59.239Z,1.51
2022-11-19T13:02:04.235Z,1.51
2022-11-19T13:05:32.286Z,1.46
2022-11-19T13:08:43.968Z,1.58
2022-11-19T13:11:50.663Z,1.58
2022-11-19T13:14:57.554Z,1.48
2022-11-19T13:18:02.540Z,1.44
2022-11-19T13:21:08.586Z,1.38
2022-11-19T13:24:25.923Z,1.29
2022-11-19T13:27:29.529Z,1.34
2022-11-19T13:30:33.738Z,1.30
2022-11-19T13:33:43.924Z,1.23
2022-11-19T13:36:52.018Z,1.30
2022-11-19T13:40:00.665Z,1.31
2022-11-19T13:43:36.995Z,1.33
2022-11-19T13:46:45.002Z,1.30
2022-11-19T13:50:11.467Z,1.28
2022-11-19T13:53:36.270Z,1.38
2022-11-19T13:56:42.043Z,1.36
2022-11-19T13:59:47.099Z,1.29
2022-11-19T14:03:10.039Z,1.31
2022-11-19T14:06:34.037Z,1.24
2022-11-19T14:10:23.564Z,1.29
2022-11-19T14:13:43.638Z,1.56
2022-11-19T14:17:10.878Z,1.42
2022-11-19T14:20:50.676Z,1.22
2022-11-19T14:24:11.097Z,1.16
2022-11-19T14:27:23.603Z,1.12
2022-11-19T14:31:01.612Z,1.05
2022-11-19T14:34:04.450Z,1.17
2022-11-19T14:37:25.399Z,1.09
2022-11-19T14:40:28.915Z,0.96
2022-11-19T14:43:49.460Z,0.90
2022-11-19T14:46:51.496Z,0.99
2022-11-19T14:49:54.555Z,0.89
2022-11-19T14:52:58.434Z,0.94
2022-11-19T14:56:00.810Z,0.86
2022-11-19T14:59:15.009Z,0.91
2022-11-19T15:02:26.608Z,0.69
2022-11-19T15:05:36.655Z,0.64
2022-11-19T15:08:52.158Z,0.71
2022-11-19T15:11:57.118Z,0.68
2022-11-19T15:15:22.480Z,0.74
2022-11-19T15:18:24.767Z,0.74
2022-11-19T15:21:38.868Z,0.70
2022-11-19T15:25:09.961Z,0.72
2022-11-19T15:28:23.102Z,0.72
2022-11-19T15:31:34.073Z,0.64
2022-11-19T15:35:10.767Z,0.64
2022-11-19T15:38:18.500Z,0.56
2022-11-19T15:41:24.474Z,0.49
2022-11-19T15:44:45.119Z,0.63
2022-11-19T15:47:52.978Z,0.67
2022-11-19T15:50:55.014Z,0.67
2022-11-19T15:54:05.929Z,0.59
2022-11-19T15:57:16.963Z,0.75
2022-11-19T16:00:26.225Z,0.85
2022-11-19T16:03:31.806Z,0.88
2022-11-19T16:06:40.653Z,0.87
2022-11-19T16:09:43.996Z,0.95
2022-11-19T16:13:16.387Z,0.99
2022-11-19T16:16:46.379Z,0.96
2022-11-19T16:20:01.193Z,0.99
2022-11-19T16:23:06.397Z,1.03
2022-11-19T16:26:09.142Z,1.10
2022-11-19T16:29:22.827Z,1.07
2022-11-19T16:32:26.579Z,1.08
2022-11-19T16:35:33.137Z,1.12
2022-11-19T16:38:35.172Z,1.22
2022-11-19T16:41:55.888Z,1.30
2022-11-19T16:45:11.821Z,1.36
2022-11-19T16:48:49.573Z,1.39
2022-11-19T16:51:53.431Z,1.41
2022-11-19T16:54:55.734Z,1.43
2022-11-19T16:58:00.262Z,1.49
2022-11-19T17:01:03.701Z,1.49
2022-11-19T17:04:07.998Z,1.61
2022-11-19T17:07:14.769Z,1.56
2022-11-19T17:10:22.843Z,1.58
2022-11-19T17:13:31.351Z,1.68
2022-11-19T17:16:35.359Z,1.63
2022-11-19T17:19:37.373Z,1.55
2022-11-19T17:22:40.203Z,1.62
2022-11-19T17:26:09.901Z,1.63
2022-11-19T17:29:12.223Z,1.69
2022-11-19T17:32:14.631Z,1.72
2022-11-19T17:35:35.614Z,1.72
2022-11-19T17:38:38.008Z,1.82
2022-11-19T17:41:59.611Z,1.81
2022-11-19T17:45:06.027Z,1.81
2022-11-19T17:48:21.518Z,1.83
2022-11-19T17:51:25.433Z,1.84
2022-11-19T17:54:28.758Z,1.83
2022-11-19T17:57:31.429Z,1.59
2022-11-19T18:00:34.162Z,1.72
2022-11-19T18:03:36.362Z,1.77
2022-11-19T18:06:38.436Z,1.75
2022-11-19T18:09:41.368Z,1.81
2022-11-19T18:12:44.145Z,1.87
2022-11-19T18:15:46.334Z,1.78
2022-11-19T18:18:49.389Z,1.70
2022-11-19T18:21:52.115Z,1.72
2022-11-19T18:24:54.488Z,1.75
2022-11-19T18:27:57.997Z,1.82
2022-11-19T18:31:00.163Z,1.75
2022-11-19T18:34:02.486Z,1.84
2022-11-19T18:37:05.101Z,1.86
2022-11-19T18:40:07.878Z,1.76
2022-11-19T18:43:29.322Z,1.79
2022-11-19T18:46:31.680Z,1.80
2022-11-19T18:49:35.926Z,1.84
2022-11-19T18:52:38.640Z,1.83
2022-11-19T18:55:40.872Z,1.85
2022-11-19T18:58:43.634Z,1.63
2022-11-19T19:01:45.820Z,1.52
2022-11-19T19:04:50.965Z,1.54
2022-11-19T19:07:53.529Z,1.60
2022-11-19T19:11:16.362Z,1.77
2022-11-19T19:14:19.101Z,1.78
2022-11-19T19:17:22.214Z,1.70
2022-11-19T19:20:24.742Z,1.81
2022-11-19T19:23:27.435Z,1.81
2022-11-19T19:26:29.626Z,1.79
2022-11-19T19:29:32.089Z,1.77
2022-11-19T19:32:34.401Z,1.79
2022-11-19T19:35:38.665Z,1.83
2022-11-19T19:38:41.196Z,1.72
2022-11-19T19:41:43.415Z,1.63
2022-11-19T19:44:45.867Z,1.70
2022-11-19T19:47:47.993Z,1.62
2022-11-19T19:50:51.599Z,1.68
2022-11-19T19:53:54.829Z,1.58
2022-11-19T19:56:56.982Z,1.56
2022-11-19T20:00:00.113Z,1.55
2022-11-19T20:03:02.251Z,1.70
2022-11-19T20:06:06.305Z,1.70
2022-11-19T20:09:09.131Z,1.79
2022-11-19T20:12:11.776Z,1.71
2022-11-19T20:15:13.894Z,1.71
2022-11-19T20:18:16.058Z,1.66
2022-11-19T20:21:27.163Z,1.60
2022-11-19T20:24:29.335Z,1.56
2022-11-19T20:27:31.569Z,1.50
2022-11-19T20:30:33.694Z,1.32
2022-11-19T20:33:36.560Z,1.17
2022-11-19T20:36:39.132Z,1.23
2022-11-19T20:39:41.245Z,1.13
2022-11-19T20:43:01.941Z,1.23
2022-11-19T20:46:12.060Z,1.41
2022-11-19T20:49:17.115Z,1.54
2022-11-19T20:52:21.579Z,1.57
2022-11-19T20:55:24.086Z,1.63
2022-11-19T20:58:26.252Z,1.72
2022-11-19T21:01:31.188Z,1.84
2022-11-19T21:04:36.679Z,1.85
2022-11-19T21:07:38.755Z,1.78
2022-11-19T21:10:41.290Z,1.77
2022-11-19T21:13:44.903Z,1.76
2022-11-19T21:16:48.311Z,1.87
2022-11-19T21:19:50.358Z,1.92
2022-11-19T21:22:53.162Z,1.99
2022-11-19T21:26:04.080Z,1.89
2022-11-19T21:29:06.137Z,1.44
2022-11-19T21:32:08.562Z,1.43
2022-11-19T21:35:10.519Z,1.34
2022-11-19T21:38:12.616Z,1.28
2022-11-19T21:41:14.587Z,1.32
2022-11-19T21:44:21.158Z,1.42
2022-11-19T21:47:23.779Z,1.51
2022-11-19T21:50:25.871Z,1.58
2022-11-19T21:53:27.840Z,1.49
2022-11-19T21:56:33.838Z,1.55
2022-11-19T21:59:39.493Z,1.62
2022-11-19T22:02:41.603Z,1.56
2022-11-19T22:05:43.541Z,1.58
2022-11-19T22:08:45.533Z,1.52
2022-11-19T22:11:47.575Z,1.58
2022-11-19T22:14:49.899Z,1.75
2022-11-19T22:17:52.546Z,1.75
2022-11-19T22:21:04.026Z,1.68
2022-11-19T22:24:06.842Z,1.56
2022-11-19T22:27:08.984Z,1.61
2022-11-19T22:30:12.940Z,1.68
2022-11-19T22:33:14.695Z,1.67
2022-11-19T22:36:16.672Z,1.66
2022-11-19T22:39:19.857Z,1.68
2022-11-19T22:42:22.657Z,1.70
2022-11-19T22:45:25.410Z,1.63
2022-11-19T22:48:32.101Z,1.61
2022-11-19T22:51:34.009Z,1.76
2022-11-19T22:54:41.200Z,1.73
2022-11-19T22:57:43.597Z,1.77
2022-11-19T23:00:48.058Z,1.76
2022-11-19T23:03:50.535Z,1.91
2022-11-19T23:06:52.435Z,1.93
2022-11-19T23:09:54.288Z,1.85
2022-11-19T23:13:14.688Z,1.86
2022-11-19T23:16:20.482Z,1.86
2022-11-19T23:19:23.188Z,1.86
2022-11-19T23:22:25.067Z,1.82
2022-11-19T23:25:27.261Z,1.82
2022-11-19T23:28:30.715Z,1.84
2022-11-19T23:31:34.917Z,1.96
2022-11-19T23:34:36.930Z,1.94
2022-11-19T23:37:38.753Z,1.89
2022-11-19T23:40:40.508Z,1.94
2022-11-19T23:43:42.941Z,1.92
2022-11-19T23:46:44.632Z,2.00
2022-11-19T23:49:46.466Z,2.01
2022-11-19T23:52:48.235Z,1.99
2022-11-19T23:55:49.996Z,2.04
2022-11-19T23:58:52.342Z,1.99
